Airport ICAO


23:14 UTC

7°C

Clear skies


An affordable passengers' Moving Map for your aircraft. Made for the iPad and the iPhone
More information here

LFMN Cote D'Azur


Nice FRANCE   VFR CAVOK


METAR LFMN 182300Z 34006KT CAVOK 07/00 Q1011 NOSIG 0h14min

TAF LFMN 182000Z 1821/2003 33010KT CAVOK BECMG 1911/1913 10010KT BECMG 1918/1920 34010KT 3h14min





NOTAMS

OPEN